KFCM/FCM METAR and TAF weather

Enter ICAO airport designator
Station Type Date Time Source
KFCM METAR 2019/10/19 06:53 UTC NOAA

KFCM 190653Z AUTO 19007KT 10SM CLR 13/07 A2956 RMK AO2 SLP010 T01330067


Station Type Date Time Source
KFCM Decoded METAR 2019/10/19 06:53 UTC NOAA

Minneapolis, Flying Cloud Airport, MN, United States (KFCM) 44-49-56N 093-28-13W 280M
Oct 19, 2019 - 02:53 AM EDT / 2019.10.19 0653 UTC
Wind: from the S (190 degrees) at 8 MPH (7 KT):0
Visibility: 10 mile(s):0
Sky conditions: clear
Temperature: 55.9 F (13.3 C)
Dew Point: 44.1 F (6.7 C)
Relative Humidity: 64%
Pressure (altimeter): 29.56 in. Hg (1001 hPa)
ob: KFCM 190653Z AUTO 19007KT 10SM CLR 13/07 A2956 RMK AO2 SLP010 T01330067
cycle: 7

Station Type Date Time Source
KFCM TAF 2018/02/05 20:59 UTC NOAA

TAF
AMD KFCM 051959Z 0520/0618 27007KT 6SM -SHSN BKN020 OVC050
TEMPO 0520/0522 SCT020 BKN050
FM052200 27007KT P6SM FEW020 BKN100
FM060100 31007KT P6SM FEW200
FM061000 VRB03KT P6SM FEW250
AMD NOT SKED

Example: see airport list